Time;durP1;ratioP1;P1;durP2;ratioP2;P2;SDS_P1;SDS_P2;PMS_P1;PMS_P2;Temp;Humidity;BMP_temperature;BMP_pressure;BME280_temperature;BME280_humidity;BME280_pressure;Samples;Min_cycle;Max_cycle;Signal;HPM_P1;HPM_P2
2024/03/08 00:01:36;;;;;;;4.23;1.80;;;;;;;-1.74;66.44;102741.06;5052620;28;20453;-76
2024/03/08 00:04:03;;;;;;;5.23;1.87;;;;;;;-1.76;66.66;102735.84;5052724;28;20440;-75
2024/03/08 00:06:29;;;;;;;6.77;1.80;;;;;;;-1.79;66.76;102733.09;5052795;28;20430;-75
2024/03/08 00:08:58;;;;;;;4.63;2.17;;;;;;;-1.80;66.74;102738.13;5052519;28;20525;-75
2024/03/08 00:11:25;;;;;;;3.13;1.70;;;;;;;-1.82;66.75;102734.59;5052648;28;20965;-76
2024/03/08 00:13:53;;;;;;;4.67;2.00;;;;;;;-1.83;66.81;102732.81;5052592;28;20810;-75
2024/03/08 00:16:20;;;;;;;3.83;1.67;;;;;;;-1.85;66.75;102732.75;5052488;28;20950;-75
2024/03/08 00:18:47;;;;;;;2.90;1.83;;;;;;;-1.86;67.07;102733.50;5052586;28;20495;-75
2024/03/08 00:21:15;;;;;;;5.50;2.03;;;;;;;-1.88;67.15;102724.88;5038741;28;21002;-75
2024/03/08 00:23:42;;;;;;;3.77;1.80;;;;;;;-1.91;67.20;102729.81;5032552;28;20525;-75
2024/03/08 00:26:10;;;;;;;6.30;2.10;;;;;;;-1.91;67.31;102724.69;5032343;28;20435;-75
2024/03/08 00:28:37;;;;;;;2.23;1.80;;;;;;;-1.98;66.91;102718.28;5032498;28;20439;-75
2024/03/08 00:31:04;;;;;;;3.90;2.00;;;;;;;-1.94;67.41;102719.34;5032429;28;20439;-75
2024/03/08 00:33:31;;;;;;;5.13;1.90;;;;;;;-1.94;67.27;102724.47;5032205;28;20853;-76
2024/03/08 00:35:58;;;;;;;4.53;1.90;;;;;;;-1.96;67.15;102720.94;5033771;28;20952;-75
2024/03/08 00:38:25;;;;;;;3.87;1.60;;;;;;;-1.97;67.64;102714.03;5036548;28;20427;-75
2024/03/08 00:40:52;;;;;;;5.93;1.93;;;;;;;-1.99;66.92;102710.50;5036507;28;20438;-76
2024/03/08 00:43:20;;;;;;;3.17;1.87;;;;;;;-2.00;67.44;102718.97;5036433;28;20536;-75
2024/03/08 00:45:47;;;;;;;4.17;1.80;;;;;;;-2.00;67.70;102713.84;5036477;28;20448;-76
2024/03/08 00:48:14;;;;;;;4.17;1.77;;;;;;;-2.01;67.34;102723.22;5036380;28;20438;-75
2024/03/08 00:50:41;;;;;;;3.67;1.73;;;;;;;-2.02;67.14;102715.47;5036307;28;20492;-75
2024/03/08 00:53:08;;;;;;;4.47;2.30;;;;;;;-2.06;67.13;102705.78;5036505;28;20434;-69
2024/03/08 00:55:34;;;;;;;2.27;1.60;;;;;;;-2.05;67.47;102715.25;5036289;28;20466;-69
2024/03/08 00:58:02;;;;;;;2.20;1.80;;;;;;;-2.04;67.32;102706.78;5036366;28;20785;-69
2024/03/08 01:00:30;;;;;;;2.83;1.93;;;;;;;-2.06;67.60;102708.34;5036119;28;20978;-69
2024/03/08 01:02:58;;;;;;;4.37;1.70;;;;;;;-2.06;67.61;102700.66;5036155;28;20475;-70
2024/03/08 01:05:25;;;;;;;4.27;1.90;;;;;;;-2.08;67.49;102704.81;5036320;28;20894;-70
2024/03/08 01:07:52;;;;;;;5.80;2.33;;;;;;;-2.07;67.47;102698.91;5035989;28;20438;-70
2024/03/08 01:10:19;;;;;;;2.93;1.60;;;;;;;-2.09;67.48;102697.91;5036056;28;20452;-70
2024/03/08 01:12:46;;;;;;;3.07;1.60;;;;;;;-2.11;67.20;102697.84;5036034;28;20453;-70
2024/03/08 01:15:13;;;;;;;3.73;1.60;;;;;;;-2.11;67.41;102704.63;5035849;28;20443;-70
2024/03/08 01:17:41;;;;;;;3.43;1.70;;;;;;;-2.13;67.92;102704.56;5035834;28;20429;-70
2024/03/08 01:20:10;;;;;;;3.40;1.83;;;;;;;-2.13;67.91;102699.41;5035832;28;20460;-70
2024/03/08 01:22:37;;;;;;;3.23;2.00;;;;;;;-2.18;67.77;102688.88;5035968;28;20905;-70
2024/03/08 01:25:05;;;;;;;4.73;1.60;;;;;;;-2.15;67.70;102699.31;5035673;28;20452;-70
2024/03/08 01:27:32;;;;;;;5.87;1.87;;;;;;;-2.15;67.66;102693.31;5035617;28;21000;-70
2024/03/08 01:29:59;;;;;;;3.93;1.63;;;;;;;-2.17;68.20;102685.53;5035570;28;20534;-70
2024/03/08 01:32:26;;;;;;;2.43;1.20;;;;;;;-2.25;67.25;102676.50;5035727;28;20500;-69
2024/03/08 01:34:54;;;;;;;5.63;1.87;;;;;;;-2.16;67.62;102697.56;5035523;28;20437;-70
2024/03/08 01:37:21;;;;;;;1.70;1.30;;;;;;;-2.17;67.59;102693.22;5035488;28;20446;-70
2024/03/08 01:39:48;;;;;;;7.70;1.70;;;;;;;-2.18;67.44;102688.00;5035393;28;20445;-69
2024/03/08 01:42:17;;;;;;;2.50;1.60;;;;;;;-2.27;67.58;102672.06;5035243;28;20443;-70
2024/03/08 01:44:44;;;;;;;2.43;1.40;;;;;;;-2.19;68.13;102692.25;5035246;28;20435;-70
2024/03/08 01:47:12;;;;;;;3.20;1.67;;;;;;;-2.21;67.59;102682.69;5033917;28;20477;-70
2024/03/08 01:49:39;;;;;;;2.63;1.70;;;;;;;-2.21;67.83;102687.81;5035247;28;20439;-70
2024/03/08 01:52:07;;;;;;;2.73;2.00;;;;;;;-2.23;67.59;102680.00;5035101;28;20442;-68
2024/03/08 01:54:35;;;;;;;4.30;1.50;;;;;;;-2.21;67.50;102680.13;5035219;28;20442;-70
2024/03/08 01:57:02;;;;;;;3.30;1.90;;;;;;;-2.25;68.02;102676.50;5035153;28;20434;-70
2024/03/08 01:59:30;;;;;;;2.20;1.53;;;;;;;-2.23;67.79;102685.13;5035118;28;20437;-70
2024/03/08 02:02:01;;;;;;;3.00;1.70;;;;;;;-2.23;67.67;102680.00;5035154;28;20943;-77
2024/03/08 02:04:30;;;;;;;2.40;1.37;;;;;;;-2.25;67.63;102676.50;5034969;28;20908;-78
2024/03/08 02:06:57;;;;;;;1.70;1.40;;;;;;;-2.24;67.73;102678.25;5035428;28;20478;-77
2024/03/08 02:09:26;;;;;;;2.73;1.83;;;;;;;-2.25;67.51;102671.38;5035343;28;20506;-77
2024/03/08 02:11:54;;;;;;;2.10;1.57;;;;;;;-2.26;68.02;102669.56;5035691;28;20946;-69
2024/03/08 02:14:21;;;;;;;2.77;1.50;;;;;;;-2.26;68.29;102667.00;5035453;28;20445;-68
2024/03/08 02:16:48;;;;;;;1.67;1.27;;;;;;;-2.26;68.31;102669.56;5035169;28;20530;-69
2024/03/08 02:19:15;;;;;;;1.90;1.23;;;;;;;-2.27;67.82;102662.69;5034628;28;20449;-69
2024/03/08 02:21:46;;;;;;;1.93;1.30;;;;;;;-2.28;67.57;102665.16;5034628;28;20438;-69
2024/03/08 02:24:14;;;;;;;3.97;1.60;;;;;;;-2.26;68.07;102663.56;5034476;28;21059;-68
2024/03/08 02:26:42;;;;;;;4.43;1.60;;;;;;;-2.26;67.82;102667.00;5034507;28;20559;-69
2024/03/08 02:29:09;;;;;;;2.30;1.50;;;;;;;-2.27;67.92;102660.13;5034564;28;20853;-69
2024/03/08 02:31:36;;;;;;;3.17;1.33;;;;;;;-2.25;67.43;102662.75;5034317;28;20435;-69
2024/03/08 02:34:03;;;;;;;3.60;1.50;;;;;;;-2.27;68.05;102662.69;5034398;28;20474;-69
2024/03/08 02:36:30;;;;;;;2.33;1.33;;;;;;;-2.26;67.79;102667.00;5034407;28;20821;-69
2024/03/08 02:38:58;;;;;;;2.27;1.40;;;;;;;-2.26;67.54;102661.00;5034373;28;20919;-69
2024/03/08 02:41:25;;;;;;;1.97;1.47;;;;;;;-2.27;67.58;102657.56;5034447;28;20455;-69
2024/03/08 02:43:52;;;;;;;1.63;1.20;;;;;;;-2.27;67.88;102667.81;5034088;28;20483;-69
2024/03/08 02:46:19;;;;;;;2.37;1.40;;;;;;;-2.27;67.33;102657.56;5034168;28;20442;-69
2024/03/08 02:48:46;;;;;;;3.00;1.83;;;;;;;-2.27;68.34;102657.56;5034107;28;20447;-70
2024/03/08 02:51:13;;;;;;;2.53;1.53;;;;;;;-2.26;68.30;102658.44;5034057;28;20474;-69
2024/03/08 02:53:40;;;;;;;3.37;1.67;;;;;;;-2.28;68.35;102658.38;5034050;28;20447;-68
2024/03/08 02:56:12;;;;;;;5.03;1.80;;;;;;;-2.29;68.28;102648.88;5033891;28;20459;-69
2024/03/08 02:58:39;;;;;;;2.90;1.43;;;;;;;-2.28;68.16;102653.25;5033488;28;20451;-69
2024/03/08 03:01:06;;;;;;;3.87;1.60;;;;;;;-2.29;68.26;102656.56;5033904;28;20431;-69
2024/03/08 03:03:33;;;;;;;3.13;1.60;;;;;;;-2.29;68.04;102656.56;5033823;28;20482;-69
2024/03/08 03:06:00;;;;;;;1.77;1.27;;;;;;;-2.30;67.85;102652.25;5033809;28;20467;-69
2024/03/08 03:08:28;;;;;;;3.10;1.30;;;;;;;-2.31;68.35;102652.16;5033741;28;20446;-69
2024/03/08 03:10:56;;;;;;;2.77;1.63;;;;;;;-2.36;67.55;102642.50;5033800;28;20447;-69
2024/03/08 03:13:24;;;;;;;2.60;1.60;;;;;;;-2.32;67.69;102651.25;5033928;28;20534;-69
2024/03/08 03:15:51;;;;;;;1.47;1.10;;;;;;;-2.33;67.96;102644.38;5033599;28;20448;-69
2024/03/08 03:18:21;;;;;;;2.50;1.40;;;;;;;-2.33;67.93;102643.50;5033630;28;20454;-69
2024/03/08 03:20:49;;;;;;;1.10;1.00;;;;;;;-2.35;67.85;102648.53;5033577;28;20439;-69
2024/03/08 03:23:20;;;;;;;1.33;1.07;;;;;;;-2.36;67.97;102647.63;5033420;28;20494;-70
2024/03/08 03:25:47;;;;;;;3.30;1.60;;;;;;;-2.42;68.14;102636.16;5033456;28;20948;-70
2024/03/08 03:28:17;;;;;;;1.50;1.27;;;;;;;-2.36;67.53;102646.75;5033302;28;20962;-70
2024/03/08 03:30:47;;;;;;;3.00;1.50;;;;;;;-2.37;68.29;102644.97;5033309;28;21067;-70
2024/03/08 03:33:15;;;;;;;1.27;1.10;;;;;;;-2.36;68.39;102649.31;5033227;28;20453;-69
2024/03/08 03:35:42;;;;;;;2.93;1.70;;;;;;;-2.38;67.78;102638.09;5033242;28;20942;-70
2024/03/08 03:38:10;;;;;;;2.73;1.53;;;;;;;-2.37;67.69;102639.84;5033295;28;20437;-69
2024/03/08 03:40:37;;;;;;;1.77;1.37;;;;;;;-2.36;68.51;102647.63;5033117;28;20439;-69
2024/03/08 03:43:05;;;;;;;1.57;1.30;;;;;;;-2.36;68.03;102642.50;5033028;28;20966;-70
2024/03/08 03:45:34;;;;;;;1.90;1.20;;;;;;;-2.36;68.27;102637.38;5033116;28;20430;-70
2024/03/08 03:48:03;;;;;;;1.40;1.30;;;;;;;-2.36;67.82;102639.06;5033153;28;20574;-70
2024/03/08 03:50:30;;;;;;;2.80;1.57;;;;;;;-2.35;67.90;102643.41;5032919;28;20449;-70
2024/03/08 03:52:57;;;;;;;1.97;1.40;;;;;;;-2.36;68.52;102639.06;5033050;28;20447;-70
2024/03/08 03:55:24;;;;;;;3.13;1.60;;;;;;;-2.36;68.73;102632.25;5032853;28;20545;-70
2024/03/08 03:57:50;;;;;;;2.00;1.43;;;;;;;-2.35;68.45;102635.69;5033107;28;20537;-70
2024/03/08 04:00:18;;;;;;;2.67;1.50;;;;;;;-2.34;68.26;102642.59;5033001;28;20454;-70
2024/03/08 04:02:46;;;;;;;1.50;1.40;;;;;;;-2.32;68.20;102637.56;5032914;28;20553;-70
2024/03/08 04:05:15;;;;;;;2.03;1.33;;;;;;;-2.32;68.62;102638.44;5032704;28;20907;-70
2024/03/08 04:07:41;;;;;;;3.53;1.60;;;;;;;-2.31;68.64;102639.31;5032674;28;20439;-70
2024/03/08 04:10:11;;;;;;;2.40;1.53;;;;;;;-2.31;68.80;102640.25;5031985;28;20442;-70
2024/03/08 04:12:38;;;;;;;3.67;1.60;;;;;;;-2.29;68.21;102640.31;5032650;28;20439;-70
2024/03/08 04:15:07;;;;;;;2.20;1.57;;;;;;;-2.30;68.87;102642.00;5032627;28;20457;-70
2024/03/08 04:17:35;;;;;;;1.87;1.40;;;;;;;-2.29;68.40;102642.88;5032677;28;20517;-70
2024/03/08 04:20:07;;;;;;;2.20;1.30;;;;;;;-2.29;68.39;102643.75;5032432;28;20516;-70
2024/03/08 04:22:36;;;;;;;3.50;1.50;;;;;;;-2.27;68.20;102642.19;5032760;28;20442;-68
2024/03/08 04:25:03;;;;;;;2.37;1.50;;;;;;;-2.26;68.83;102643.94;5032485;28;20470;-69
2024/03/08 04:27:30;;;;;;;1.60;1.27;;;;;;;-2.26;68.09;102633.69;5032488;28;21002;-69
2024/03/08 04:29:57;;;;;;;1.47;1.17;;;;;;;-2.25;68.86;102632.00;5032503;28;20445;-69
2024/03/08 04:32:23;;;;;;;2.73;1.63;;;;;;;-2.26;68.90;102632.81;5032342;28;20939;-70
2024/03/08 04:34:50;;;;;;;2.57;1.70;;;;;;;-2.26;68.40;102631.13;5032437;28;20451;-70
2024/03/08 04:37:21;;;;;;;3.10;1.73;;;;;;;-2.26;68.88;102628.56;5032543;28;20477;-70
2024/03/08 04:39:49;;;;;;;2.07;1.50;;;;;;;-2.25;68.86;102625.22;5032517;28;20571;-70
2024/03/08 04:42:17;;;;;;;3.63;1.60;;;;;;;-2.27;68.17;102626.78;5032375;28;20443;-70
2024/03/08 04:44:44;;;;;;;2.30;1.77;;;;;;;-2.27;68.35;102621.66;5032309;28;20482;-71
2024/03/08 04:47:11;;;;;;;2.83;1.70;;;;;;;-2.27;68.34;102626.78;5032329;28;20954;-70
2024/03/08 04:49:38;;;;;;;2.30;1.57;;;;;;;-2.26;69.03;102622.53;5032290;28;20932;-70
2024/03/08 04:52:06;;;;;;;2.63;1.80;;;;;;;-2.26;68.81;102622.53;5032326;28;20516;-71
2024/03/08 04:54:34;;;;;;;2.73;1.60;;;;;;;-2.26;69.07;102618.28;5032146;28;20450;-71
2024/03/08 04:57:04;;;;;;;3.53;1.47;;;;;;;-2.25;68.29;102622.66;5032295;28;20950;-70
2024/03/08 04:59:31;;;;;;;2.47;1.57;;;;;;;-2.26;68.51;102618.28;5032293;28;20525;-70
2024/03/08 05:01:58;;;;;;;2.67;1.50;;;;;;;-2.25;68.48;102614.97;5032281;28;20437;-70
2024/03/08 05:04:25;;;;;;;2.07;1.47;;;;;;;-2.25;68.81;102609.84;5032023;28;21009;-71
2024/03/08 05:06:53;;;;;;;2.93;1.50;;;;;;;-2.25;68.70;102612.41;5032166;28;20924;-70
2024/03/08 05:09:20;;;;;;;2.57;1.40;;;;;;;-2.24;68.83;102621.84;5032058;28;20435;-71
2024/03/08 05:11:47;;;;;;;2.37;1.43;;;;;;;-2.24;69.37;102610.72;5032089;28;20924;-70
2024/03/08 05:14:19;;;;;;;2.23;2.03;;;;;;;-2.24;69.00;102616.72;5031995;28;20490;-71
2024/03/08 05:16:48;;;;;;;2.17;1.50;;;;;;;-2.23;68.79;102605.66;5032064;28;20475;-70
2024/03/08 05:19:16;;;;;;;4.40;1.93;;;;;;;-2.24;68.71;102611.59;5031988;28;20839;-70
2024/03/08 05:21:43;;;;;;;3.23;1.97;;;;;;;-2.23;69.40;102610.78;5032808;28;20942;-71
2024/03/08 05:24:11;;;;;;;2.07;1.47;;;;;;;-2.22;69.38;102606.56;5035629;28;20536;-70
2024/03/08 05:26:38;;;;;;;2.40;1.60;;;;;;;-2.23;69.22;102608.22;5035650;28;20437;-71
2024/03/08 05:29:05;;;;;;;3.00;1.40;;;;;;;-2.23;69.34;102613.34;5035544;28;20487;-69
2024/03/08 05:31:39;;;;;;;2.97;1.73;;;;;;;-2.23;68.64;102603.09;5035581;28;20450;-70
2024/03/08 05:34:09;;;;;;;3.50;1.77;;;;;;;-2.23;69.00;102603.09;5035641;28;20433;-73
2024/03/08 05:36:36;;;;;;;2.40;1.37;;;;;;;-2.23;69.36;102600.53;5035418;28;20445;-72
2024/03/08 05:39:06;;;;;;;2.47;1.37;;;;;;;-2.23;69.20;102608.22;5035500;28;20435;-72
2024/03/08 05:41:33;;;;;;;2.37;1.67;;;;;;;-2.23;68.77;102600.53;5035661;28;20453;-72
2024/03/08 05:44:00;;;;;;;2.23;1.57;;;;;;;-2.23;69.54;102605.66;5035247;28;20504;-73
2024/03/08 05:46:27;;;;;;;4.43;1.77;;;;;;;-2.22;69.23;102604.88;5035304;28;20435;-72
2024/03/08 05:48:55;;;;;;;2.10;1.53;;;;;;;-2.22;68.98;102609.13;5035301;28;20435;-72
2024/03/08 05:51:26;;;;;;;3.30;1.77;;;;;;;-2.22;69.55;102604.88;5035258;28;20979;-72
2024/03/08 05:53:53;;;;;;;3.03;1.50;;;;;;;-2.21;69.15;102611.78;5035027;28;20489;-73
2024/03/08 05:56:20;;;;;;;3.13;1.80;;;;;;;-2.21;69.51;102600.63;5035074;28;20853;-72
2024/03/08 05:58:47;;;;;;;2.97;1.57;;;;;;;-2.21;69.83;102606.63;5035066;28;20807;-72
2024/03/08 06:01:15;;;;;;;2.80;1.77;;;;;;;-2.21;69.10;102609.22;5035127;28;20447;-72
2024/03/08 06:03:44;;;;;;;5.23;1.80;;;;;;;-2.20;69.04;102610.97;5034958;28;20790;-72
2024/03/08 06:06:13;;;;;;;1.70;1.20;;;;;;;-2.18;69.04;102605.94;5034979;28;20451;-72
2024/03/08 06:08:40;;;;;;;4.87;2.03;;;;;;;-2.18;69.73;102606.81;5034963;28;20431;-72
2024/03/08 06:11:07;;;;;;;2.77;1.87;;;;;;;-2.16;70.00;102610.38;5034937;28;20442;-72
2024/03/08 06:13:34;;;;;;;3.53;1.63;;;;;;;-2.14;69.62;102606.22;5034819;28;20932;-72
2024/03/08 06:16:04;;;;;;;1.77;1.40;;;;;;;-2.22;69.43;102591.19;5034718;28;20447;-72
2024/03/08 06:18:31;;;;;;;2.87;1.90;;;;;;;-2.11;69.96;102612.31;5034894;28;20446;-72
2024/03/08 06:20:57;;;;;;;4.77;2.10;;;;;;;-2.09;70.05;102616.72;5034609;28;20446;-72
2024/03/08 06:23:27;;;;;;;2.60;1.70;;;;;;;-2.07;69.52;102614.28;5034594;28;20442;-72
2024/03/08 06:25:54;;;;;;;2.83;1.80;;;;;;;-2.05;70.10;102620.34;5034438;28;20887;-73
2024/03/08 06:28:21;;;;;;;3.00;2.10;;;;;;;-2.05;69.89;102615.22;5034504;28;20437;-73
2024/03/08 06:30:48;;;;;;;2.70;1.77;;;;;;;-2.02;69.26;102612.88;5034636;28;20953;-73
2024/03/08 06:33:16;;;;;;;3.73;2.20;;;;;;;-2.01;69.21;102618.06;5033703;28;20857;-73
2024/03/08 06:35:43;;;;;;;3.77;1.77;;;;;;;-1.98;70.11;102622.50;5034816;28;20574;-73
2024/03/08 06:38:11;;;;;;;2.30;1.63;;;;;;;-1.96;70.31;102618.34;5034385;28;20446;-73
2024/03/08 06:40:40;;;;;;;2.87;1.70;;;;;;;-1.95;69.93;102615.84;5034278;28;20570;-73
2024/03/08 06:43:07;;;;;;;3.83;2.30;;;;;;;-1.93;70.36;102616.84;5034270;28;20431;-77
2024/03/08 06:45:36;;;;;;;4.43;2.10;;;;;;;-1.92;70.06;102610.00;5034242;28;20480;-74
2024/03/08 06:48:06;;;;;;;3.23;1.90;;;;;;;-1.87;69.86;102610.28;5034323;28;20438;-75
2024/03/08 06:50:32;;;;;;;3.63;1.90;;;;;;;-1.84;70.21;102613.91;5034092;28;20446;-72
2024/03/08 06:52:59;;;;;;;3.83;1.70;;;;;;;-1.84;70.43;102606.22;5034306;28;20442;-69
2024/03/08 06:55:26;;;;;;;4.47;1.70;;;;;;;-1.83;70.12;102610.53;5033862;28;20475;-69
2024/03/08 06:57:54;;;;;;;2.77;1.80;;;;;;;-1.76;70.33;102616.94;5034142;28;20445;-69
2024/03/08 07:00:26;;;;;;;3.83;2.03;;;;;;;-1.82;70.33;102608.88;5034008;28;20925;-69
2024/03/08 07:02:54;;;;;;;2.63;1.77;;;;;;;-1.70;69.62;102619.84;5034002;28;20442;-69
2024/03/08 07:05:21;;;;;;;5.73;1.97;;;;;;;-1.66;70.35;102618.31;5033808;28;20474;-69
2024/03/08 07:07:49;;;;;;;2.27;1.70;;;;;;;-1.64;69.64;102621.88;5033911;28;20439;-68
2024/03/08 07:10:16;;;;;;;4.20;2.13;;;;;;;-1.60;70.47;102621.22;5033766;28;20542;-68
2024/03/08 07:12:43;;;;;;;2.90;1.77;;;;;;;-1.57;70.69;102626.53;5033968;28;20442;-69
2024/03/08 07:15:14;;;;;;;3.60;1.87;;;;;;;-1.54;70.43;102629.28;5033844;28;20443;-68
2024/03/08 07:17:44;;;;;;;3.73;1.90;;;;;;;-1.49;70.93;102627.84;5033637;28;20512;-69
2024/03/08 07:20:13;;;;;;;3.97;2.07;;;;;;;-1.48;70.26;102619.38;5033669;28;20470;-69
2024/03/08 07:22:40;;;;;;;4.20;1.90;;;;;;;-1.42;70.09;102613.69;5033508;28;20497;-69
2024/03/08 07:25:19;;;;;;;3.33;2.13;;;;;;;-1.38;70.56;102624.22;5033588;28;20474;-69
2024/03/08 07:27:47;;;;;;;6.03;2.00;;;;;;;-1.35;70.28;102621.81;5044948;28;20956;-68
2024/03/08 07:30:52;;;;;;;5.43;2.93;;;;;;;-1.30;70.34;102620.38;5033325;28;20943;-69
2024/03/08 07:33:04;;;;;;;3.10;2.07;;;;;;;-1.26;70.16;102614.63;5033004;28;20431;-69
2024/03/08 07:35:31;;;;;;;2.47;1.93;;;;;;;-1.21;70.22;102608.84;5049812;28;20448;-68
2024/03/08 07:37:59;;;;;;;5.73;2.40;;;;;;;-1.16;70.96;102610.00;5052156;28;20442;-69
2024/03/08 07:40:26;;;;;;;4.20;2.10;;;;;;;-1.10;70.73;102610.34;5053008;28;20500;-69
2024/03/08 07:42:53;;;;;;;5.93;2.43;;;;;;;-1.04;70.78;102608.09;5052994;28;20434;-69
2024/03/08 07:45:22;;;;;;;2.73;1.90;;;;;;;-0.97;71.19;102610.22;5053045;28;20508;-68
2024/03/08 07:47:50;;;;;;;5.57;2.07;;;;;;;-0.92;70.68;102606.19;5053131;28;20495;-69
2024/03/08 07:50:19;;;;;;;3.83;2.10;;;;;;;-0.82;70.80;102605.00;5053154;28;20449;-69
2024/03/08 07:52:46;;;;;;;2.27;1.70;;;;;;;-0.73;70.76;102604.59;5053078;28;20445;-74
2024/03/08 07:55:13;;;;;;;2.90;1.80;;;;;;;-0.66;70.45;102609.25;5053227;28;20454;-75
2024/03/08 07:57:40;;;;;;;2.73;1.90;;;;;;;-0.58;71.31;102607.97;5053124;28;20446;-74
2024/03/08 08:00:08;;;;;;;1.43;1.23;;;;;;;-0.46;70.57;102606.06;5052827;28;20547;-75
2024/03/08 08:02:36;;;;;;;3.13;1.90;;;;;;;-0.37;71.14;102606.53;5053170;28;20488;-72
2024/03/08 08:05:04;;;;;;;3.30;1.67;;;;;;;-0.28;71.18;102600.09;5051940;28;20982;-70
2024/03/08 08:07:30;;;;;;;3.17;1.83;;;;;;;-0.17;70.93;102601.53;5052875;28;20438;-71
2024/03/08 08:09:57;;;;;;;2.90;1.80;;;;;;;-0.08;70.64;102599.41;5052419;28;20442;-71
2024/03/08 08:12:25;;;;;;;2.63;1.67;;;;;;;0.02;71.10;102601.59;5052700;28;20856;-71
2024/03/08 08:14:52;;;;;;;4.47;1.90;;;;;;;0.12;71.21;102606.41;5052823;28;20450;-79
2024/03/08 08:17:18;;;;;;;3.70;2.10;;;;;;;0.23;70.51;102600.94;5052621;28;20427;-77
2024/03/08 08:19:47;;;;;;;2.10;1.80;;;;;;;0.32;70.94;102599.66;5052573;28;20949;-78
2024/03/08 08:22:14;;;;;;;2.17;1.93;;;;;;;0.44;70.60;102599.38;5052592;28;20552;-73
2024/03/08 08:24:41;;;;;;;5.17;2.17;;;;;;;0.51;70.50;102598.88;5052701;28;20488;-72
2024/03/08 08:27:09;;;;;;;3.30;1.80;;;;;;;0.62;70.59;102590.75;5052331;28;20492;-73
2024/03/08 08:29:36;;;;;;;3.30;1.90;;;;;;;0.70;70.76;102590.31;5052746;28;20512;-74
2024/03/08 08:32:03;;;;;;;3.53;1.93;;;;;;;0.78;70.30;102588.97;5036374;28;20489;-73
2024/03/08 08:34:31;;;;;;;2.77;1.77;;;;;;;0.88;70.73;102592.88;5032554;28;20447;-72
2024/03/08 08:36:59;;;;;;;4.60;2.20;;;;;;;0.97;70.20;102595.00;5048248;28;20426;-72
2024/03/08 08:39:26;;;;;;;2.63;1.90;;;;;;;1.04;70.74;102591.88;5052360;28;20873;-71
2024/03/08 08:41:53;;;;;;;4.03;2.10;;;;;;;1.13;70.57;102591.41;5052092;28;21018;-71
2024/03/08 08:44:20;;;;;;;3.83;1.90;;;;;;;1.20;70.51;102593.47;5052341;28;20932;-72
2024/03/08 08:46:46;;;;;;;4.73;2.23;;;;;;;1.27;69.95;102595.47;5052320;28;20966;-73
2024/03/08 08:49:14;;;;;;;3.73;1.90;;;;;;;1.34;70.24;102594.94;5052338;28;20438;-73
2024/03/08 08:51:41;;;;;;;6.43;2.13;;;;;;;1.40;69.90;102591.75;5052409;28;20439;-71
2024/03/08 08:54:09;;;;;;;4.90;2.10;;;;;;;1.45;70.12;102582.53;5052432;28;20445;-71
2024/03/08 08:56:37;;;;;;;2.10;1.70;;;;;;;1.50;69.98;102582.72;5052798;28;20471;-72
2024/03/08 08:59:04;;;;;;;2.87;2.10;;;;;;;1.55;69.97;102582.09;5056570;28;20525;-72
2024/03/08 09:01:31;;;;;;;2.43;1.83;;;;;;;1.59;69.86;102588.28;5056158;28;20822;-74
2024/03/08 09:03:58;;;;;;;2.80;1.87;;;;;;;1.64;69.47;102581.63;5056234;28;20912;-76
2024/03/08 09:06:25;;;;;;;2.60;1.93;;;;;;;1.68;69.54;102581.81;5056046;28;20482;-73
2024/03/08 09:08:52;;;;;;;4.43;2.03;;;;;;;1.73;69.43;102581.13;5055958;28;20445;-75
2024/03/08 09:11:21;;;;;;;4.60;1.87;;;;;;;1.77;69.47;102575.28;5055953;28;20446;-76
2024/03/08 09:13:48;;;;;;;4.13;2.10;;;;;;;1.81;69.37;102570.31;5055997;28;20438;-74
2024/03/08 09:16:15;;;;;;;2.27;1.80;;;;;;;1.85;69.05;102568.75;5055904;28;20451;-74
2024/03/08 09:18:42;;;;;;;3.50;1.60;;;;;;;1.88;69.16;102572.34;5055849;28;20980;-73
2024/03/08 09:21:09;;;;;;;4.10;2.07;;;;;;;1.94;69.44;102569.13;5055850;28;20820;-73
2024/03/08 09:23:36;;;;;;;2.40;1.73;;;;;;;1.99;69.20;102571.91;5055914;28;20442;-72
2024/03/08 09:26:04;;;;;;;5.07;2.00;;;;;;;2.02;69.24;102569.47;5055720;28;20473;-72
2024/03/08 09:28:32;;;;;;;3.80;1.97;;;;;;;2.05;68.88;102564.44;5055838;28;20863;-73
2024/03/08 09:31:01;;;;;;;2.93;1.90;;;;;;;2.07;68.90;102563.63;5055541;28;20441;-72
2024/03/08 09:33:28;;;;;;;2.80;1.40;;;;;;;2.11;68.73;102569.84;5055729;28;20461;-72
2024/03/08 09:35:57;;;;;;;2.63;1.83;;;;;;;2.14;68.63;102560.50;5055604;28;20447;-75
2024/03/08 09:38:24;;;;;;;2.93;1.67;;;;;;;2.17;68.72;102561.47;5055615;28;20450;-76
2024/03/08 09:40:52;;;;;;;3.10;1.53;;;;;;;2.20;68.57;102553.84;5055729;28;20483;-75
2024/03/08 09:43:19;;;;;;;3.20;1.93;;;;;;;2.22;68.56;102553.06;5055519;28;20448;-75
2024/03/08 09:45:51;;;;;;;1.53;1.40;;;;;;;2.27;68.63;102558.41;5055357;28;20475;-75
2024/03/08 09:48:20;;;;;;;5.50;1.90;;;;;;;2.34;68.25;102556.16;5055376;28;20530;-73
2024/03/08 09:50:47;;;;;;;3.83;2.03;;;;;;;2.46;68.47;102565.19;5055422;28;20440;-74
2024/03/08 09:53:14;;;;;;;3.93;1.77;;;;;;;2.51;68.35;102555.94;5055235;28;20443;-74
2024/03/08 09:55:44;;;;;;;2.90;1.93;;;;;;;2.53;68.16;102562.00;5054631;28;20481;-74
2024/03/08 09:58:36;;;;;;;2.43;1.87;;;;;;;2.54;68.16;102556.06;5055109;28;20448;-73
2024/03/08 10:01:06;;;;;;;3.27;1.80;;;;;;;2.56;67.93;102552.72;5055211;28;20454;-73
2024/03/08 10:03:33;;;;;;;4.17;2.00;;;;;;;2.59;68.04;102554.53;5055124;28;20986;-72
2024/03/08 10:06:00;;;;;;;3.07;1.83;;;;;;;2.62;68.02;102551.19;5054830;28;20484;-72
2024/03/08 10:08:29;;;;;;;2.60;2.40;;;;;;;2.66;67.90;102555.63;5053636;28;20446;-72
2024/03/08 10:10:57;;;;;;;3.03;2.37;;;;;;;2.70;67.45;102558.41;5055318;28;20429;-73
2024/03/08 10:13:26;;;;;;;2.83;1.83;;;;;;;2.74;67.18;102552.53;5054989;28;20460;-73
2024/03/08 10:15:53;;;;;;;2.63;1.90;;;;;;;2.76;66.47;102545.72;5055103;28;20447;-74
2024/03/08 10:18:22;;;;;;;3.50;1.80;;;;;;;2.81;66.36;102551.94;5053388;28;20978;-73
2024/03/08 10:21:04;;;;;;;3.63;1.70;;;;;;;2.87;66.48;102547.81;5054680;28;20914;-72
2024/03/08 10:23:32;;;;;;;3.27;1.50;;;;;;;2.89;66.29;102551.34;5054748;28;20443;-75
2024/03/08 10:25:58;;;;;;;1.93;1.33;;;;;;;2.93;66.20;102550.66;5054628;28;20856;-76
2024/03/08 10:28:25;;;;;;;3.07;1.93;;;;;;;2.97;65.98;102555.09;5054680;28;20940;-76
2024/03/08 10:30:52;;;;;;;2.60;1.63;;;;;;;2.99;66.02;102553.44;5054306;28;20488;-75
2024/03/08 10:33:19;;;;;;;2.10;1.17;;;;;;;3.00;65.63;102553.50;5054414;28;20439;-76
2024/03/08 10:35:48;;;;;;;2.27;1.57;;;;;;;3.02;65.25;102557.03;5054405;28;20466;-74
2024/03/08 10:38:21;;;;;;;2.53;1.70;;;;;;;3.06;65.46;102558.00;5054496;28;20457;-75
2024/03/08 10:40:52;;;;;;;1.77;1.40;;;;;;;3.08;65.50;102551.19;5054494;28;20450;-75
2024/03/08 10:43:25;;;;;;;3.07;1.70;;;;;;;3.11;65.47;102561.66;5054498;28;20452;-76
2024/03/08 10:46:02;;;;;;;3.50;1.70;;;;;;;3.12;65.36;102558.22;5054166;28;20474;-75
2024/03/08 10:48:32;;;;;;;2.97;1.67;;;;;;;3.13;65.32;102557.44;5054264;28;20441;-75
2024/03/08 10:51:00;;;;;;;2.57;1.43;;;;;;;3.15;64.82;102562.63;5054217;28;20426;-75
2024/03/08 10:53:29;;;;;;;2.77;1.73;;;;;;;3.15;64.56;102555.75;5048797;28;20445;-75
2024/03/08 10:55:57;;;;;;;2.43;2.00;;;;;;;3.15;64.36;102552.28;5053945;28;20464;-75
2024/03/08 10:58:27;;;;;;;3.73;1.80;;;;;;;3.15;63.62;102560.94;5053994;28;20438;-74
2024/03/08 11:00:55;;;;;;;4.10;1.70;;;;;;;3.16;64.05;102552.38;5053879;28;20483;-76
2024/03/08 11:03:50;;;;;;;4.83;1.83;;;;;;;3.18;64.03;102557.56;5054123;28;20501;-77
2024/03/08 11:06:22;;;;;;;3.37;1.70;;;;;;;3.16;64.02;102552.38;5053944;28;20531;-75
2024/03/08 11:08:50;;;;;;;3.00;1.60;;;;;;;3.17;64.11;102546.34;5053857;28;20450;-74
2024/03/08 11:11:34;;;;;;;2.17;1.60;;;;;;;3.19;64.20;102549.88;5053818;28;20432;-74
2024/03/08 11:14:01;;;;;;;2.77;1.70;;;;;;;3.20;64.28;102546.47;5053780;28;20829;-74
2024/03/08 11:16:45;;;;;;;2.47;1.70;;;;;;;3.21;64.41;102542.16;5053685;28;20979;-74
2024/03/08 11:19:27;;;;;;;6.17;1.97;;;;;;;3.22;64.17;102549.13;5053244;28;20440;-74
2024/03/08 11:22:05;;;;;;;2.20;1.63;;;;;;;3.21;64.26;102543.06;5053947;28;20444;-74
2024/03/08 11:24:40;;;;;;;3.07;2.00;;;;;;;3.20;64.13;102540.41;5053553;28;20842;-74
2024/03/08 11:27:09;;;;;;;7.13;2.30;;;;;;;3.23;64.36;102540.53;5053415;28;20536;-74
2024/03/08 11:29:40;;;;;;;3.33;1.80;;;;;;;3.24;64.35;102538.00;5053550;28;20502;-74
2024/03/08 11:32:11;;;;;;;2.50;1.57;;;;;;;3.24;63.98;102543.19;5053512;28;20434;-73